sensor_id;sensor_type;location;lat;lon;timestamp;P1;durP1;ratioP1;P2;durP2;ratioP2
75377;SDS011;63959;51.960;5.886;2022-10-28T00:01:15;11.85;;;5.40;;
75377;SDS011;63959;51.960;5.886;2022-10-28T00:03:44;11.98;;;5.43;;
75377;SDS011;63959;51.960;5.886;2022-10-28T00:06:14;9.73;;;5.50;;
75377;SDS011;63959;51.960;5.886;2022-10-28T00:08:42;9.40;;;4.13;;
75377;SDS011;63959;51.960;5.886;2022-10-28T00:11:14;12.15;;;5.43;;
75377;SDS011;63959;51.960;5.886;2022-10-28T00:13:46;10.68;;;5.35;;
75377;SDS011;63959;51.960;5.886;2022-10-28T00:16:16;11.98;;;4.85;;
75377;SDS011;63959;51.960;5.886;2022-10-28T00:18:46;12.10;;;5.65;;
75377;SDS011;63959;51.960;5.886;2022-10-28T00:21:15;9.93;;;5.10;;
75377;SDS011;63959;51.960;5.886;2022-10-28T00:23:44;7.57;;;4.28;;
75377;SDS011;63959;51.960;5.886;2022-10-28T00:26:13;11.07;;;5.60;;
75377;SDS011;63959;51.960;5.886;2022-10-28T00:28:43;9.82;;;4.47;;
75377;SDS011;63959;51.960;5.886;2022-10-28T00:31:16;11.63;;;4.53;;
75377;SDS011;63959;51.960;5.886;2022-10-28T00:33:45;10.55;;;5.13;;
75377;SDS011;63959;51.960;5.886;2022-10-28T00:36:14;12.10;;;4.88;;
75377;SDS011;63959;51.960;5.886;2022-10-28T00:38:44;9.35;;;4.72;;
75377;SDS011;63959;51.960;5.886;2022-10-28T00:41:14;10.38;;;4.68;;
75377;SDS011;63959;51.960;5.886;2022-10-28T00:43:44;9.38;;;4.72;;
75377;SDS011;63959;51.960;5.886;2022-10-28T00:46:21;10.30;;;4.63;;
75377;SDS011;63959;51.960;5.886;2022-10-28T00:48:52;10.32;;;5.40;;
75377;SDS011;63959;51.960;5.886;2022-10-28T00:51:22;10.93;;;5.63;;
75377;SDS011;63959;51.960;5.886;2022-10-28T00:53:52;12.00;;;6.32;;
75377;SDS011;63959;51.960;5.886;2022-10-28T00:56:23;9.52;;;4.63;;
75377;SDS011;63959;51.960;5.886;2022-10-28T00:58:51;13.98;;;5.93;;
75377;SDS011;63959;51.960;5.886;2022-10-28T01:01:24;11.70;;;5.47;;
75377;SDS011;63959;51.960;5.886;2022-10-28T01:03:53;12.82;;;5.75;;
75377;SDS011;63959;51.960;5.886;2022-10-28T01:06:23;15.20;;;8.02;;
75377;SDS011;63959;51.960;5.886;2022-10-28T01:08:52;13.90;;;7.43;;
75377;SDS011;63959;51.960;5.886;2022-10-28T01:14:17;10.20;;;5.25;;
75377;SDS011;63959;51.960;5.886;2022-10-28T01:16:56;13.93;;;6.63;;
75377;SDS011;63959;51.960;5.886;2022-10-28T01:19:35;12.32;;;6.57;;
75377;SDS011;63959;51.960;5.886;2022-10-28T01:22:10;13.38;;;7.10;;
75377;SDS011;63959;51.960;5.886;2022-10-28T01:24:53;13.98;;;6.95;;
75377;SDS011;63959;51.960;5.886;2022-10-28T01:27:28;15.93;;;8.85;;
75377;SDS011;63959;51.960;5.886;2022-10-28T01:30:08;11.98;;;6.70;;
75377;SDS011;63959;51.960;5.886;2022-10-28T01:32:49;16.15;;;6.50;;
75377;SDS011;63959;51.960;5.886;2022-10-28T01:35:21;15.95;;;7.03;;
75377;SDS011;63959;51.960;5.886;2022-10-28T01:37:54;16.45;;;7.03;;
75377;SDS011;63959;51.960;5.886;2022-10-28T01:42:54;11.00;;;5.05;;
75377;SDS011;63959;51.960;5.886;2022-10-28T01:45:24;14.27;;;7.20;;
75377;SDS011;63959;51.960;5.886;2022-10-28T01:47:57;15.63;;;7.60;;
75377;SDS011;63959;51.960;5.886;2022-10-28T01:50:29;16.80;;;9.90;;
75377;SDS011;63959;51.960;5.886;2022-10-28T01:53:00;23.88;;;12.20;;
75377;SDS011;63959;51.960;5.886;2022-10-28T01:55:32;14.48;;;8.85;;
75377;SDS011;63959;51.960;5.886;2022-10-28T01:58:02;17.67;;;10.52;;
75377;SDS011;63959;51.960;5.886;2022-10-28T02:00:31;17.13;;;9.30;;
75377;SDS011;63959;51.960;5.886;2022-10-28T02:03:03;21.45;;;13.15;;
75377;SDS011;63959;51.960;5.886;2022-10-28T02:05:37;21.77;;;13.57;;
75377;SDS011;63959;51.960;5.886;2022-10-28T02:08:11;22.35;;;14.85;;
75377;SDS011;63959;51.960;5.886;2022-10-28T02:10:48;24.65;;;15.23;;
75377;SDS011;63959;51.960;5.886;2022-10-28T02:13:18;24.48;;;14.75;;
75377;SDS011;63959;51.960;5.886;2022-10-28T02:15:49;19.77;;;13.57;;
75377;SDS011;63959;51.960;5.886;2022-10-28T02:18:26;26.63;;;15.88;;
75377;SDS011;63959;51.960;5.886;2022-10-28T02:20:57;16.40;;;10.43;;
75377;SDS011;63959;51.960;5.886;2022-10-28T02:23:28;17.23;;;9.13;;
75377;SDS011;63959;51.960;5.886;2022-10-28T02:26:00;23.48;;;13.77;;
75377;SDS011;63959;51.960;5.886;2022-10-28T02:28:35;21.75;;;14.55;;
75377;SDS011;63959;51.960;5.886;2022-10-28T02:31:06;30.10;;;17.45;;
75377;SDS011;63959;51.960;5.886;2022-10-28T02:33:38;22.80;;;14.23;;
75377;SDS011;63959;51.960;5.886;2022-10-28T02:36:09;16.55;;;10.00;;
75377;SDS011;63959;51.960;5.886;2022-10-28T02:38:40;17.77;;;9.52;;
75377;SDS011;63959;51.960;5.886;2022-10-28T02:41:11;15.88;;;8.85;;
75377;SDS011;63959;51.960;5.886;2022-10-28T02:43:43;13.90;;;8.20;;
75377;SDS011;63959;51.960;5.886;2022-10-28T02:46:13;16.98;;;9.75;;
75377;SDS011;63959;51.960;5.886;2022-10-28T02:48:45;13.50;;;7.78;;
75377;SDS011;63959;51.960;5.886;2022-10-28T02:51:16;14.43;;;7.13;;
75377;SDS011;63959;51.960;5.886;2022-10-28T02:53:49;15.02;;;7.80;;
75377;SDS011;63959;51.960;5.886;2022-10-28T02:56:20;17.95;;;7.88;;
75377;SDS011;63959;51.960;5.886;2022-10-28T02:58:49;18.48;;;9.88;;
75377;SDS011;63959;51.960;5.886;2022-10-28T03:01:17;14.80;;;8.25;;
75377;SDS011;63959;51.960;5.886;2022-10-28T03:03:48;12.88;;;7.30;;
75377;SDS011;63959;51.960;5.886;2022-10-28T03:06:17;11.13;;;5.65;;
75377;SDS011;63959;51.960;5.886;2022-10-28T03:08:46;15.30;;;6.75;;
75377;SDS011;63959;51.960;5.886;2022-10-28T03:11:14;9.35;;;4.97;;
75377;SDS011;63959;51.960;5.886;2022-10-28T03:13:44;15.13;;;7.70;;
75377;SDS011;63959;51.960;5.886;2022-10-28T03:16:13;12.20;;;6.28;;
75377;SDS011;63959;51.960;5.886;2022-10-28T03:18:41;11.82;;;5.38;;
75377;SDS011;63959;51.960;5.886;2022-10-28T03:21:13;11.68;;;5.72;;
75377;SDS011;63959;51.960;5.886;2022-10-28T03:23:41;9.70;;;5.00;;
75377;SDS011;63959;51.960;5.886;2022-10-28T03:26:10;12.82;;;5.40;;
75377;SDS011;63959;51.960;5.886;2022-10-28T03:28:38;14.15;;;5.93;;
75377;SDS011;63959;51.960;5.886;2022-10-28T03:31:07;12.70;;;5.63;;
75377;SDS011;63959;51.960;5.886;2022-10-28T03:33:36;9.43;;;4.57;;
75377;SDS011;63959;51.960;5.886;2022-10-28T03:36:05;10.75;;;6.57;;
75377;SDS011;63959;51.960;5.886;2022-10-28T03:38:36;15.32;;;5.60;;
75377;SDS011;63959;51.960;5.886;2022-10-28T03:41:04;9.40;;;4.78;;
75377;SDS011;63959;51.960;5.886;2022-10-28T03:43:33;10.75;;;6.03;;
75377;SDS011;63959;51.960;5.886;2022-10-28T03:46:02;14.63;;;7.40;;
75377;SDS011;63959;51.960;5.886;2022-10-28T03:48:30;13.27;;;5.75;;
75377;SDS011;63959;51.960;5.886;2022-10-28T03:50:59;9.55;;;4.55;;
75377;SDS011;63959;51.960;5.886;2022-10-28T03:53:27;10.20;;;4.78;;
75377;SDS011;63959;51.960;5.886;2022-10-28T03:55:59;8.00;;;4.07;;
75377;SDS011;63959;51.960;5.886;2022-10-28T03:58:28;9.90;;;5.57;;
75377;SDS011;63959;51.960;5.886;2022-10-28T04:00:57;10.63;;;5.32;;
75377;SDS011;63959;51.960;5.886;2022-10-28T04:03:25;11.20;;;4.70;;
75377;SDS011;63959;51.960;5.886;2022-10-28T04:05:54;9.25;;;5.40;;
75377;SDS011;63959;51.960;5.886;2022-10-28T04:08:22;11.43;;;4.30;;
75377;SDS011;63959;51.960;5.886;2022-10-28T04:10:51;18.13;;;9.10;;
75377;SDS011;63959;51.960;5.886;2022-10-28T04:13:22;13.95;;;6.05;;
75377;SDS011;63959;51.960;5.886;2022-10-28T04:15:50;17.33;;;8.82;;
75377;SDS011;63959;51.960;5.886;2022-10-28T04:18:19;13.70;;;6.50;;
75377;SDS011;63959;51.960;5.886;2022-10-28T04:20:47;9.82;;;5.10;;
75377;SDS011;63959;51.960;5.886;2022-10-28T04:23:16;12.05;;;5.88;;
75377;SDS011;63959;51.960;5.886;2022-10-28T04:25:46;12.18;;;6.60;;
75377;SDS011;63959;51.960;5.886;2022-10-28T04:28:14;12.18;;;6.18;;
75377;SDS011;63959;51.960;5.886;2022-10-28T04:30:47;11.05;;;5.55;;
75377;SDS011;63959;51.960;5.886;2022-10-28T04:33:16;9.70;;;5.00;;
75377;SDS011;63959;51.960;5.886;2022-10-28T04:35:44;11.98;;;7.07;;
75377;SDS011;63959;51.960;5.886;2022-10-28T04:38:13;8.93;;;4.80;;
75377;SDS011;63959;51.960;5.886;2022-10-28T04:40:42;11.60;;;5.90;;
75377;SDS011;63959;51.960;5.886;2022-10-28T04:43:10;10.85;;;5.22;;
75377;SDS011;63959;51.960;5.886;2022-10-28T04:45:39;9.80;;;5.07;;
75377;SDS011;63959;51.960;5.886;2022-10-28T04:48:10;10.93;;;5.13;;
75377;SDS011;63959;51.960;5.886;2022-10-28T04:50:38;10.30;;;5.70;;
75377;SDS011;63959;51.960;5.886;2022-10-28T04:53:10;10.38;;;4.88;;
75377;SDS011;63959;51.960;5.886;2022-10-28T04:55:39;13.52;;;6.82;;
75377;SDS011;63959;51.960;5.886;2022-10-28T04:58:08;8.18;;;4.50;;
75377;SDS011;63959;51.960;5.886;2022-10-28T05:00:36;13.73;;;6.50;;
75377;SDS011;63959;51.960;5.886;2022-10-28T05:03:05;14.05;;;6.93;;
75377;SDS011;63959;51.960;5.886;2022-10-28T05:05:36;10.57;;;5.38;;
75377;SDS011;63959;51.960;5.886;2022-10-28T05:08:05;9.73;;;4.57;;
75377;SDS011;63959;51.960;5.886;2022-10-28T05:10:34;8.95;;;4.53;;
75377;SDS011;63959;51.960;5.886;2022-10-28T05:13:02;6.60;;;3.63;;
75377;SDS011;63959;51.960;5.886;2022-10-28T05:15:31;8.70;;;4.20;;
75377;SDS011;63959;51.960;5.886;2022-10-28T05:17:59;11.57;;;5.90;;
75377;SDS011;63959;51.960;5.886;2022-10-28T05:20:28;8.90;;;4.22;;
75377;SDS011;63959;51.960;5.886;2022-10-28T05:22:59;9.65;;;4.82;;
75377;SDS011;63959;51.960;5.886;2022-10-28T05:25:27;6.80;;;3.28;;
75377;SDS011;63959;51.960;5.886;2022-10-28T05:27:56;9.75;;;4.55;;
75377;SDS011;63959;51.960;5.886;2022-10-28T05:30:25;10.55;;;5.00;;
75377;SDS011;63959;51.960;5.886;2022-10-28T05:32:57;16.17;;;7.53;;
75377;SDS011;63959;51.960;5.886;2022-10-28T05:35:26;10.15;;;4.85;;
75377;SDS011;63959;51.960;5.886;2022-10-28T05:37:55;11.70;;;5.10;;
75377;SDS011;63959;51.960;5.886;2022-10-28T05:40:26;6.78;;;3.60;;
75377;SDS011;63959;51.960;5.886;2022-10-28T05:42:57;8.77;;;3.85;;
75377;SDS011;63959;51.960;5.886;2022-10-28T05:45:25;7.97;;;4.00;;
75377;SDS011;63959;51.960;5.886;2022-10-28T05:47:54;9.05;;;4.07;;
75377;SDS011;63959;51.960;5.886;2022-10-28T05:50:23;9.77;;;4.00;;
75377;SDS011;63959;51.960;5.886;2022-10-28T05:52:51;7.82;;;3.85;;
75377;SDS011;63959;51.960;5.886;2022-10-28T05:55:21;8.95;;;4.65;;
75377;SDS011;63959;51.960;5.886;2022-10-28T05:57:52;11.13;;;5.55;;
75377;SDS011;63959;51.960;5.886;2022-10-28T06:00:21;11.05;;;5.03;;
75377;SDS011;63959;51.960;5.886;2022-10-28T06:02:50;11.02;;;5.05;;
75377;SDS011;63959;51.960;5.886;2022-10-28T06:05:19;9.52;;;4.75;;
75377;SDS011;63959;51.960;5.886;2022-10-28T06:07:47;10.77;;;3.55;;
75377;SDS011;63959;51.960;5.886;2022-10-28T06:10:16;9.55;;;4.45;;
75377;SDS011;63959;51.960;5.886;2022-10-28T06:12:44;13.02;;;4.90;;
75377;SDS011;63959;51.960;5.886;2022-10-28T06:15:16;8.85;;;4.07;;
75377;SDS011;63959;51.960;5.886;2022-10-28T06:17:46;7.28;;;3.40;;
75377;SDS011;63959;51.960;5.886;2022-10-28T06:20:15;6.55;;;3.50;;
75377;SDS011;63959;51.960;5.886;2022-10-28T06:22:46;8.13;;;4.05;;
75377;SDS011;63959;51.960;5.886;2022-10-28T06:25:15;15.07;;;4.90;;
75377;SDS011;63959;51.960;5.886;2022-10-28T06:27:44;10.50;;;4.90;;
75377;SDS011;63959;51.960;5.886;2022-10-28T06:30:15;12.63;;;4.43;;
75377;SDS011;63959;51.960;5.886;2022-10-28T06:32:44;13.73;;;6.18;;
75377;SDS011;63959;51.960;5.886;2022-10-28T06:35:13;15.25;;;7.07;;
75377;SDS011;63959;51.960;5.886;2022-10-28T06:37:41;9.88;;;4.18;;
75377;SDS011;63959;51.960;5.886;2022-10-28T06:40:10;12.85;;;5.55;;
75377;SDS011;63959;51.960;5.886;2022-10-28T06:42:38;11.23;;;4.85;;
75377;SDS011;63959;51.960;5.886;2022-10-28T06:45:07;9.63;;;4.22;;
75377;SDS011;63959;51.960;5.886;2022-10-28T06:47:39;11.73;;;5.35;;
75377;SDS011;63959;51.960;5.886;2022-10-28T06:50:07;11.25;;;3.88;;
75377;SDS011;63959;51.960;5.886;2022-10-28T06:52:36;8.95;;;4.13;;
75377;SDS011;63959;51.960;5.886;2022-10-28T06:55:05;13.70;;;6.40;;
75377;SDS011;63959;51.960;5.886;2022-10-28T06:57:33;11.18;;;4.88;;
75377;SDS011;63959;51.960;5.886;2022-10-28T07:00:02;14.68;;;6.53;;
75377;SDS011;63959;51.960;5.886;2022-10-28T07:02:31;13.95;;;5.10;;
75377;SDS011;63959;51.960;5.886;2022-10-28T07:05:02;11.98;;;4.18;;
75377;SDS011;63959;51.960;5.886;2022-10-28T07:07:31;14.23;;;5.50;;
75377;SDS011;63959;51.960;5.886;2022-10-28T07:10:01;14.05;;;6.15;;
75377;SDS011;63959;51.960;5.886;2022-10-28T07:12:30;11.05;;;5.63;;
75377;SDS011;63959;51.960;5.886;2022-10-28T07:14:59;9.48;;;4.47;;
75377;SDS011;63959;51.960;5.886;2022-10-28T07:17:27;8.38;;;3.97;;
75377;SDS011;63959;51.960;5.886;2022-10-28T07:19:56;12.98;;;6.70;;
75377;SDS011;63959;51.960;5.886;2022-10-28T07:22:27;12.40;;;4.95;;
75377;SDS011;63959;51.960;5.886;2022-10-28T07:24:56;11.95;;;4.13;;
75377;SDS011;63959;51.960;5.886;2022-10-28T07:27:24;14.73;;;5.93;;
75377;SDS011;63959;51.960;5.886;2022-10-28T07:29:56;12.90;;;5.13;;
75377;SDS011;63959;51.960;5.886;2022-10-28T07:32:24;12.95;;;5.45;;
75377;SDS011;63959;51.960;5.886;2022-10-28T07:34:53;13.63;;;5.22;;
75377;SDS011;63959;51.960;5.886;2022-10-28T07:37:21;21.17;;;6.32;;
75377;SDS011;63959;51.960;5.886;2022-10-28T07:39:52;18.38;;;5.90;;
75377;SDS011;63959;51.960;5.886;2022-10-28T07:42:21;9.73;;;4.60;;
75377;SDS011;63959;51.960;5.886;2022-10-28T07:44:49;11.10;;;4.28;;
75377;SDS011;63959;51.960;5.886;2022-10-28T07:47:18;11.82;;;4.15;;
75377;SDS011;63959;51.960;5.886;2022-10-28T07:49:47;13.38;;;4.30;;
75377;SDS011;63959;51.960;5.886;2022-10-28T07:52:15;12.43;;;4.53;;
75377;SDS011;63959;51.960;5.886;2022-10-28T07:54:44;9.82;;;4.30;;
75377;SDS011;63959;51.960;5.886;2022-10-28T07:57:15;12.85;;;4.75;;
75377;SDS011;63959;51.960;5.886;2022-10-28T07:59:44;11.13;;;4.60;;
75377;SDS011;63959;51.960;5.886;2022-10-28T08:02:14;11.43;;;4.35;;
75377;SDS011;63959;51.960;5.886;2022-10-28T08:04:43;14.48;;;4.32;;
75377;SDS011;63959;51.960;5.886;2022-10-28T08:07:12;10.25;;;4.20;;
75377;SDS011;63959;51.960;5.886;2022-10-28T08:09:40;10.75;;;4.22;;
75377;SDS011;63959;51.960;5.886;2022-10-28T08:12:15;8.98;;;4.22;;
75377;SDS011;63959;51.960;5.886;2022-10-28T08:14:43;10.90;;;4.38;;
75377;SDS011;63959;51.960;5.886;2022-10-28T08:17:12;14.13;;;4.70;;
75377;SDS011;63959;51.960;5.886;2022-10-28T08:19:41;10.90;;;4.57;;
75377;SDS011;63959;51.960;5.886;2022-10-28T08:22:09;12.93;;;4.95;;
75377;SDS011;63959;51.960;5.886;2022-10-28T08:24:38;12.68;;;5.25;;
75377;SDS011;63959;51.960;5.886;2022-10-28T08:27:07;10.43;;;3.90;;
75377;SDS011;63959;51.960;5.886;2022-10-28T08:29:38;11.73;;;4.28;;
75377;SDS011;63959;51.960;5.886;2022-10-28T08:32:07;11.73;;;4.32;;
75377;SDS011;63959;51.960;5.886;2022-10-28T08:34:35;10.35;;;3.85;;
75377;SDS011;63959;51.960;5.886;2022-10-28T08:37:04;11.95;;;4.18;;
75377;SDS011;63959;51.960;5.886;2022-10-28T08:39:33;11.85;;;4.70;;
75377;SDS011;63959;51.960;5.886;2022-10-28T08:42:04;12.88;;;4.68;;
75377;SDS011;63959;51.960;5.886;2022-10-28T08:47:24;11.60;;;4.90;;
75377;SDS011;63959;51.960;5.886;2022-10-28T08:52:27;11.00;;;3.97;;
75377;SDS011;63959;51.960;5.886;2022-10-28T08:54:59;15.38;;;4.22;;
75377;SDS011;63959;51.960;5.886;2022-10-28T08:57:32;10.88;;;4.00;;
75377;SDS011;63959;51.960;5.886;2022-10-28T09:02:35;12.93;;;4.05;;
75377;SDS011;63959;51.960;5.886;2022-10-28T09:05:14;9.98;;;4.10;;
75377;SDS011;63959;51.960;5.886;2022-10-28T09:07:43;13.40;;;5.10;;
75377;SDS011;63959;51.960;5.886;2022-10-28T09:10:12;11.18;;;4.35;;
75377;SDS011;63959;51.960;5.886;2022-10-28T09:12:43;12.70;;;4.20;;
75377;SDS011;63959;51.960;5.886;2022-10-28T09:15:18;13.77;;;4.97;;
75377;SDS011;63959;51.960;5.886;2022-10-28T09:17:53;17.63;;;5.18;;
75377;SDS011;63959;51.960;5.886;2022-10-28T09:20:25;9.30;;;4.25;;
75377;SDS011;63959;51.960;5.886;2022-10-28T09:22:55;11.77;;;4.93;;
75377;SDS011;63959;51.960;5.886;2022-10-28T09:25:27;14.35;;;4.43;;
75377;SDS011;63959;51.960;5.886;2022-10-28T09:28:02;12.02;;;4.85;;
75377;SDS011;63959;51.960;5.886;2022-10-28T09:30:36;11.52;;;4.22;;
75377;SDS011;63959;51.960;5.886;2022-10-28T09:33:12;12.25;;;4.47;;
75377;SDS011;63959;51.960;5.886;2022-10-28T09:35:47;11.10;;;4.15;;
75377;SDS011;63959;51.960;5.886;2022-10-28T09:38:19;14.60;;;5.15;;
75377;SDS011;63959;51.960;5.886;2022-10-28T09:40:51;11.85;;;4.78;;
75377;SDS011;63959;51.960;5.886;2022-10-28T09:43:21;12.35;;;4.40;;
75377;SDS011;63959;51.960;5.886;2022-10-28T09:45:52;15.02;;;4.95;;
75377;SDS011;63959;51.960;5.886;2022-10-28T09:48:26;15.48;;;5.32;;
75377;SDS011;63959;51.960;5.886;2022-10-28T09:50:55;11.30;;;3.92;;
75377;SDS011;63959;51.960;5.886;2022-10-28T09:53:30;9.63;;;3.70;;
75377;SDS011;63959;51.960;5.886;2022-10-28T09:56:00;10.00;;;3.90;;
75377;SDS011;63959;51.960;5.886;2022-10-28T09:58:31;12.00;;;4.13;;
75377;SDS011;63959;51.960;5.886;2022-10-28T10:00:59;11.65;;;3.78;;
75377;SDS011;63959;51.960;5.886;2022-10-28T10:03:32;15.90;;;5.50;;
75377;SDS011;63959;51.960;5.886;2022-10-28T10:06:04;9.60;;;3.92;;
75377;SDS011;63959;51.960;5.886;2022-10-28T10:08:37;12.02;;;4.88;;
75377;SDS011;63959;51.960;5.886;2022-10-28T10:11:09;13.63;;;5.32;;
75377;SDS011;63959;51.960;5.886;2022-10-28T10:13:41;16.70;;;4.75;;
75377;SDS011;63959;51.960;5.886;2022-10-28T10:16:12;11.85;;;4.90;;
75377;SDS011;63959;51.960;5.886;2022-10-28T10:18:46;11.75;;;5.10;;
75377;SDS011;63959;51.960;5.886;2022-10-28T10:21:16;13.07;;;4.20;;
75377;SDS011;63959;51.960;5.886;2022-10-28T10:23:46;11.95;;;4.00;;
75377;SDS011;63959;51.960;5.886;2022-10-28T10:26:15;13.25;;;3.92;;
75377;SDS011;63959;51.960;5.886;2022-10-28T10:28:45;13.48;;;5.15;;
75377;SDS011;63959;51.960;5.886;2022-10-28T10:31:18;10.63;;;4.30;;
75377;SDS011;63959;51.960;5.886;2022-10-28T10:33:50;20.90;;;6.10;;
75377;SDS011;63959;51.960;5.886;2022-10-28T10:36:20;13.75;;;4.70;;
75377;SDS011;63959;51.960;5.886;2022-10-28T10:38:53;14.00;;;5.15;;
75377;SDS011;63959;51.960;5.886;2022-10-28T10:41:32;8.32;;;3.70;;
75377;SDS011;63959;51.960;5.886;2022-10-28T10:44:04;8.13;;;3.70;;
75377;SDS011;63959;51.960;5.886;2022-10-28T10:47:13;13.52;;;4.60;;
75377;SDS011;63959;51.960;5.886;2022-10-28T10:49:45;12.63;;;3.97;;
75377;SDS011;63959;51.960;5.886;2022-10-28T10:52:15;10.88;;;4.45;;
75377;SDS011;63959;51.960;5.886;2022-10-28T10:54:46;12.00;;;4.38;;
75377;SDS011;63959;51.960;5.886;2022-10-28T10:57:16;9.10;;;3.30;;
75377;SDS011;63959;51.960;5.886;2022-10-28T10:59:46;11.00;;;3.67;;
75377;SDS011;63959;51.960;5.886;2022-10-28T11:02:19;11.10;;;3.95;;
75377;SDS011;63959;51.960;5.886;2022-10-28T11:04:52;12.70;;;3.28;;
75377;SDS011;63959;51.960;5.886;2022-10-28T11:09:52;13.68;;;4.28;;
75377;SDS011;63959;51.960;5.886;2022-10-28T11:12:24;10.20;;;3.05;;
75377;SDS011;63959;51.960;5.886;2022-10-28T11:14:54;13.32;;;2.97;;
75377;SDS011;63959;51.960;5.886;2022-10-28T11:17:24;9.23;;;3.47;;
75377;SDS011;63959;51.960;5.886;2022-10-28T11:19:56;12.60;;;4.60;;
75377;SDS011;63959;51.960;5.886;2022-10-28T11:22:31;10.68;;;3.90;;
75377;SDS011;63959;51.960;5.886;2022-10-28T11:27:49;11.57;;;3.70;;
75377;SDS011;63959;51.960;5.886;2022-10-28T11:30:24;10.90;;;3.90;;
75377;SDS011;63959;51.960;5.886;2022-10-28T11:32:55;9.40;;;3.35;;
75377;SDS011;63959;51.960;5.886;2022-10-28T11:35:31;14.13;;;3.90;;
75377;SDS011;63959;51.960;5.886;2022-10-28T11:38:08;8.20;;;3.20;;
75377;SDS011;63959;51.960;5.886;2022-10-28T11:40:41;9.30;;;3.25;;
75377;SDS011;63959;51.960;5.886;2022-10-28T11:43:17;11.82;;;4.05;;
75377;SDS011;63959;51.960;5.886;2022-10-28T11:45:48;8.13;;;3.30;;
75377;SDS011;63959;51.960;5.886;2022-10-28T11:48:22;10.60;;;3.50;;
75377;SDS011;63959;51.960;5.886;2022-10-28T11:50:58;9.98;;;3.72;;
75377;SDS011;63959;51.960;5.886;2022-10-28T11:53:37;10.50;;;3.28;;
75377;SDS011;63959;51.960;5.886;2022-10-28T11:56:15;16.00;;;4.32;;
75377;SDS011;63959;51.960;5.886;2022-10-28T11:58:47;12.70;;;3.42;;
75377;SDS011;63959;51.960;5.886;2022-10-28T12:01:30;11.52;;;3.92;;
75377;SDS011;63959;51.960;5.886;2022-10-28T12:04:06;12.52;;;4.18;;
75377;SDS011;63959;51.960;5.886;2022-10-28T12:06:45;12.80;;;4.07;;
75377;SDS011;63959;51.960;5.886;2022-10-28T12:09:20;10.98;;;3.13;;
75377;SDS011;63959;51.960;5.886;2022-10-28T12:12:01;11.52;;;4.32;;
75377;SDS011;63959;51.960;5.886;2022-10-28T12:14:34;10.88;;;3.60;;
75377;SDS011;63959;51.960;5.886;2022-10-28T12:17:07;15.07;;;4.10;;
75377;SDS011;63959;51.960;5.886;2022-10-28T12:19:41;9.32;;;3.10;;
75377;SDS011;63959;51.960;5.886;2022-10-28T12:22:14;8.15;;;3.22;;
75377;SDS011;63959;51.960;5.886;2022-10-28T12:24:48;8.73;;;3.35;;
75377;SDS011;63959;51.960;5.886;2022-10-28T12:27:18;11.55;;;3.83;;
75377;SDS011;63959;51.960;5.886;2022-10-28T12:29:50;9.60;;;3.10;;
75377;SDS011;63959;51.960;5.886;2022-10-28T12:32:23;9.20;;;3.35;;
75377;SDS011;63959;51.960;5.886;2022-10-28T12:34:57;11.00;;;3.40;;
75377;SDS011;63959;51.960;5.886;2022-10-28T12:39:59;13.45;;;3.90;;
75377;SDS011;63959;51.960;5.886;2022-10-28T12:44:57;12.25;;;3.55;;
75377;SDS011;63959;51.960;5.886;2022-10-28T12:47:30;8.02;;;3.22;;
75377;SDS011;63959;51.960;5.886;2022-10-28T12:50:04;11.77;;;3.65;;
75377;SDS011;63959;51.960;5.886;2022-10-28T12:55:10;13.77;;;4.00;;
75377;SDS011;63959;51.960;5.886;2022-10-28T12:57:43;12.13;;;3.13;;
75377;SDS011;63959;51.960;5.886;2022-10-28T13:00:15;10.15;;;3.05;;
75377;SDS011;63959;51.960;5.886;2022-10-28T13:02:48;10.48;;;2.92;;
75377;SDS011;63959;51.960;5.886;2022-10-28T13:10:34;15.52;;;3.97;;
75377;SDS011;63959;51.960;5.886;2022-10-28T13:13:12;11.73;;;3.50;;
75377;SDS011;63959;51.960;5.886;2022-10-28T13:15:49;13.95;;;3.72;;
75377;SDS011;63959;51.960;5.886;2022-10-28T13:21:04;16.73;;;3.58;;
75377;SDS011;63959;51.960;5.886;2022-10-28T13:23:38;11.98;;;3.60;;
75377;SDS011;63959;51.960;5.886;2022-10-28T13:26:15;11.48;;;3.53;;
75377;SDS011;63959;51.960;5.886;2022-10-28T13:28:48;10.32;;;3.13;;
75377;SDS011;63959;51.960;5.886;2022-10-28T13:31:17;13.00;;;2.97;;
75377;SDS011;63959;51.960;5.886;2022-10-28T13:33:47;10.30;;;3.13;;
75377;SDS011;63959;51.960;5.886;2022-10-28T13:36:18;12.63;;;3.33;;
75377;SDS011;63959;51.960;5.886;2022-10-28T13:38:48;9.00;;;3.25;;
75377;SDS011;63959;51.960;5.886;2022-10-28T13:41:30;10.27;;;3.47;;
75377;SDS011;63959;51.960;5.886;2022-10-28T13:44:13;12.23;;;3.28;;
75377;SDS011;63959;51.960;5.886;2022-10-28T13:49:26;10.68;;;3.42;;
75377;SDS011;63959;51.960;5.886;2022-10-28T13:51:58;8.50;;;2.85;;
75377;SDS011;63959;51.960;5.886;2022-10-28T13:54:29;10.98;;;3.22;;
75377;SDS011;63959;51.960;5.886;2022-10-28T13:57:06;8.75;;;2.90;;
75377;SDS011;63959;51.960;5.886;2022-10-28T13:59:48;9.27;;;2.92;;
75377;SDS011;63959;51.960;5.886;2022-10-28T14:02:22;10.07;;;3.50;;
75377;SDS011;63959;51.960;5.886;2022-10-28T14:04:52;9.70;;;3.13;;
75377;SDS011;63959;51.960;5.886;2022-10-28T14:07:22;9.50;;;3.03;;
75377;SDS011;63959;51.960;5.886;2022-10-28T14:09:52;12.02;;;3.63;;
75377;SDS011;63959;51.960;5.886;2022-10-28T14:12:26;15.93;;;4.25;;
75377;SDS011;63959;51.960;5.886;2022-10-28T14:17:39;12.32;;;3.50;;
75377;SDS011;63959;51.960;5.886;2022-10-28T14:20:18;11.20;;;3.42;;
75377;SDS011;63959;51.960;5.886;2022-10-28T14:22:49;12.45;;;3.20;;
75377;SDS011;63959;51.960;5.886;2022-10-28T14:28:07;11.70;;;3.85;;
75377;SDS011;63959;51.960;5.886;2022-10-28T14:33:43;11.32;;;3.60;;
75377;SDS011;63959;51.960;5.886;2022-10-28T14:36:21;11.05;;;3.72;;
75377;SDS011;63959;51.960;5.886;2022-10-28T14:39:01;15.32;;;3.60;;
75377;SDS011;63959;51.960;5.886;2022-10-28T14:41:40;9.77;;;3.40;;
75377;SDS011;63959;51.960;5.886;2022-10-28T14:44:19;10.40;;;3.60;;
75377;SDS011;63959;51.960;5.886;2022-10-28T14:46:53;12.90;;;4.15;;
75377;SDS011;63959;51.960;5.886;2022-10-28T14:49:23;12.23;;;4.13;;
75377;SDS011;63959;51.960;5.886;2022-10-28T14:51:52;13.25;;;3.97;;
75377;SDS011;63959;51.960;5.886;2022-10-28T14:54:27;13.43;;;3.92;;
75377;SDS011;63959;51.960;5.886;2022-10-28T14:56:56;8.93;;;3.35;;
75377;SDS011;63959;51.960;5.886;2022-10-28T14:59:28;11.50;;;3.35;;
75377;SDS011;63959;51.960;5.886;2022-10-28T15:01:59;12.65;;;3.83;;
75377;SDS011;63959;51.960;5.886;2022-10-28T15:04:29;13.65;;;3.95;;
75377;SDS011;63959;51.960;5.886;2022-10-28T15:06:57;15.65;;;4.00;;
75377;SDS011;63959;51.960;5.886;2022-10-28T15:09:26;10.82;;;3.42;;
75377;SDS011;63959;51.960;5.886;2022-10-28T15:11:56;11.45;;;3.55;;
75377;SDS011;63959;51.960;5.886;2022-10-28T15:14:35;11.57;;;3.47;;
75377;SDS011;63959;51.960;5.886;2022-10-28T15:17:11;11.57;;;4.00;;
75377;SDS011;63959;51.960;5.886;2022-10-28T15:19:40;11.35;;;4.40;;
75377;SDS011;63959;51.960;5.886;2022-10-28T15:22:11;9.40;;;3.60;;
75377;SDS011;63959;51.960;5.886;2022-10-28T15:24:40;8.93;;;3.50;;
75377;SDS011;63959;51.960;5.886;2022-10-28T15:27:10;9.60;;;3.15;;
75377;SDS011;63959;51.960;5.886;2022-10-28T15:29:42;13.65;;;3.58;;
75377;SDS011;63959;51.960;5.886;2022-10-28T15:32:12;15.38;;;4.72;;
75377;SDS011;63959;51.960;5.886;2022-10-28T15:34:42;12.07;;;4.07;;
75377;SDS011;63959;51.960;5.886;2022-10-28T15:37:14;8.30;;;3.28;;
75377;SDS011;63959;51.960;5.886;2022-10-28T15:39:43;11.05;;;3.63;;
75377;SDS011;63959;51.960;5.886;2022-10-28T15:42:30;9.90;;;3.25;;
75377;SDS011;63959;51.960;5.886;2022-10-28T15:45:09;10.65;;;3.85;;